createdAt,value
2022-10-17T00:02:16.788Z,9.37
2022-10-17T00:04:45.069Z,9.37
2022-10-17T00:07:13.794Z,9.13
2022-10-17T00:09:45.366Z,6.93
2022-10-17T00:12:13.701Z,9.73
2022-10-17T00:14:41.981Z,6.37
2022-10-17T00:17:10.244Z,7.53
2022-10-17T00:19:38.576Z,11.43
2022-10-17T00:22:06.719Z,9.03
2022-10-17T00:24:34.864Z,8.00
2022-10-17T00:27:04.626Z,11.03
2022-10-17T00:29:32.969Z,10.67
2022-10-17T00:32:01.203Z,6.43
2022-10-17T00:34:31.315Z,9.17
2022-10-17T00:36:59.704Z,8.83
2022-10-17T00:39:27.912Z,7.43
2022-10-17T00:41:56.308Z,10.13
2022-10-17T00:45:05.858Z,8.40
2022-10-17T00:47:36.509Z,9.90
2022-10-17T00:50:06.153Z,11.97
2022-10-17T00:52:35.132Z,9.33
2022-10-17T00:55:09.227Z,12.27
2022-10-17T00:57:37.870Z,8.43
2022-10-17T01:00:11.343Z,10.00
2022-10-17T01:02:40.375Z,9.17
2022-10-17T01:05:10.187Z,9.47
2022-10-17T01:07:39.406Z,10.33
2022-10-17T01:10:09.965Z,10.03
2022-10-17T01:12:53.671Z,12.97
2022-10-17T01:15:34.034Z,9.17
2022-10-17T01:18:14.444Z,9.93
2022-10-17T01:21:15.460Z,9.17
2022-10-17T01:24:23.717Z,8.80
2022-10-17T01:27:22.410Z,9.93
2022-10-17T01:30:03.975Z,8.63
2022-10-17T01:32:38.473Z,8.97
2022-10-17T01:35:13.387Z,10.97
2022-10-17T01:37:48.772Z,9.63
2022-10-17T01:40:24.047Z,14.50
2022-10-17T01:43:00.827Z,9.87
2022-10-17T01:45:33.473Z,8.90
2022-10-17T01:48:08.440Z,9.03
2022-10-17T01:50:42.737Z,6.97
2022-10-17T01:53:17.758Z,8.40
2022-10-17T01:55:48.466Z,10.57
2022-10-17T01:58:22.564Z,6.13
2022-10-17T02:00:51.815Z,6.53
2022-10-17T02:03:22.254Z,10.07
2022-10-17T02:05:50.599Z,7.10
2022-10-17T02:08:28.144Z,6.90
2022-10-17T02:11:01.809Z,7.33
2022-10-17T02:13:45.086Z,9.53
2022-10-17T02:16:29.746Z,7.33
2022-10-17T02:19:28.900Z,7.33
2022-10-17T02:22:08.428Z,8.60
2022-10-17T02:24:46.349Z,7.17
2022-10-17T02:27:18.614Z,5.50
2022-10-17T02:29:50.377Z,5.83
2022-10-17T02:32:25.868Z,7.97
2022-10-17T02:35:06.155Z,10.33
2022-10-17T02:37:35.230Z,6.73
2022-10-17T02:40:04.489Z,8.63
2022-10-17T02:42:34.281Z,6.43
2022-10-17T02:45:03.875Z,6.30
2022-10-17T02:47:37.772Z,7.40
2022-10-17T02:50:08.416Z,10.43
2022-10-17T02:52:41.455Z,7.40
2022-10-17T02:58:42.658Z,7.67
2022-10-17T03:01:11.209Z,12.20
2022-10-17T03:03:39.439Z,8.47
2022-10-17T03:06:09.201Z,10.20
2022-10-17T03:11:06.629Z,7.70
2022-10-17T03:13:38.985Z,7.10
2022-10-17T03:16:09.958Z,6.07
2022-10-17T03:18:38.544Z,8.07
2022-10-17T03:21:08.306Z,7.97
2022-10-17T03:23:36.497Z,10.17
2022-10-17T03:26:05.494Z,7.63
2022-10-17T03:28:34.148Z,11.60
2022-10-17T03:31:08.405Z,8.23
2022-10-17T03:33:44.998Z,6.80
2022-10-17T03:36:17.387Z,6.77
2022-10-17T03:38:53.849Z,9.00
2022-10-17T03:41:29.703Z,7.80
2022-10-17T03:44:06.384Z,7.17
2022-10-17T03:46:35.044Z,7.33
2022-10-17T03:49:03.208Z,9.23
2022-10-17T03:51:35.103Z,9.90
2022-10-17T03:54:03.765Z,5.80
2022-10-17T03:56:31.881Z,7.63
2022-10-17T03:59:03.235Z,7.40
2022-10-17T04:01:32.084Z,9.30
2022-10-17T04:11:01.513Z,12.60
2022-10-17T04:16:36.849Z,8.40
2022-10-17T04:19:05.262Z,10.73
2022-10-17T04:21:33.538Z,7.80
2022-10-17T04:24:09.086Z,7.33
2022-10-17T04:31:09.906Z,8.67
2022-10-17T04:41:01.707Z,6.73
2022-10-17T04:44:05.924Z,8.33
2022-10-17T04:51:52.339Z,11.90
2022-10-17T04:54:20.513Z,7.30
2022-10-17T04:56:48.770Z,7.80
2022-10-17T04:59:17.046Z,9.53
2022-10-17T05:01:45.316Z,9.13
2022-10-17T05:04:13.740Z,7.80
2022-10-17T05:06:42.037Z,7.43
2022-10-17T05:09:14.774Z,10.07
2022-10-17T05:11:44.496Z,10.33
2022-10-17T05:14:13.774Z,10.20
2022-10-17T05:16:49.614Z,6.80
2022-10-17T05:19:19.713Z,7.90
2022-10-17T05:21:48.247Z,8.33
2022-10-17T05:24:18.266Z,6.97
2022-10-17T05:26:48.742Z,9.10
2022-10-17T05:29:18.192Z,6.73
2022-10-17T05:31:48.222Z,11.70
2022-10-17T05:34:23.670Z,8.40
2022-10-17T05:36:54.107Z,10.17
2022-10-17T05:39:24.693Z,7.10
2022-10-17T05:41:56.459Z,9.00
2022-10-17T05:44:29.575Z,7.23
2022-10-17T05:46:59.153Z,5.77
2022-10-17T05:49:44.990Z,6.67
2022-10-17T05:52:17.059Z,9.60
2022-10-17T05:54:46.766Z,6.40
2022-10-17T05:57:25.974Z,8.00
2022-10-17T05:59:59.437Z,9.40
2022-10-17T06:02:33.194Z,11.70
2022-10-17T06:05:01.823Z,7.77
2022-10-17T06:07:30.071Z,12.17
2022-10-17T06:10:03.193Z,7.90
2022-10-17T06:12:36.386Z,11.17
2022-10-17T06:15:04.742Z,8.03
2022-10-17T06:21:04.842Z,8.80
2022-10-17T06:23:45.544Z,8.43
2022-10-17T06:26:15.378Z,15.00
2022-10-17T06:28:43.916Z,8.50
2022-10-17T06:31:15.914Z,10.97
2022-10-17T06:33:46.204Z,10.17
2022-10-17T06:36:22.974Z,14.93
2022-10-17T06:39:00.450Z,11.93
2022-10-17T06:41:36.710Z,13.87
2022-10-17T06:44:16.628Z,9.43
2022-10-17T06:47:22.983Z,12.83
2022-10-17T06:56:07.687Z,11.37
2022-10-17T06:58:39.768Z,10.80
2022-10-17T07:01:10.378Z,10.13
2022-10-17T07:03:40.492Z,9.90
2022-10-17T07:06:18.150Z,8.67
2022-10-17T07:08:47.076Z,8.17
2022-10-17T07:11:17.912Z,11.03
2022-10-17T07:13:48.460Z,9.85
2022-10-17T07:16:18.255Z,9.33
2022-10-17T07:22:46.280Z,10.67
2022-10-17T07:25:30.796Z,7.60
2022-10-17T07:28:02.263Z,6.87
2022-10-17T07:30:31.957Z,12.20
2022-10-17T07:36:35.119Z,11.20
2022-10-17T07:39:03.324Z,13.80
2022-10-17T07:41:31.472Z,10.60
2022-10-17T07:44:04.847Z,11.10
2022-10-17T07:46:34.471Z,13.63
2022-10-17T07:49:02.739Z,17.60
2022-10-17T07:51:32.521Z,20.73
2022-10-17T07:54:09.857Z,22.07
2022-10-17T07:56:43.615Z,21.23
2022-10-17T07:59:14.548Z,17.10
2022-10-17T08:01:44.238Z,12.97
2022-10-17T08:04:13.890Z,14.70
2022-10-17T08:06:42.287Z,10.17
2022-10-17T08:09:10.650Z,10.73
2022-10-17T08:12:12.439Z,13.00
2022-10-17T08:14:40.737Z,10.23
2022-10-17T08:17:10.719Z,9.43
2022-10-17T08:19:48.854Z,8.47
2022-10-17T08:22:22.160Z,12.60
2022-10-17T08:30:56.048Z,10.27
2022-10-17T08:33:27.177Z,9.07
2022-10-17T08:35:55.838Z,5.07
2022-10-17T08:38:57.798Z,10.97
2022-10-17T08:41:41.541Z,7.93
2022-10-17T08:44:15.045Z,4.90
2022-10-17T08:49:26.799Z,7.83
2022-10-17T08:52:00.884Z,9.87
2022-10-17T08:54:39.231Z,4.77
2022-10-17T08:57:16.492Z,5.47
2022-10-17T08:59:50.522Z,9.23
2022-10-17T09:02:41.243Z,5.37
2022-10-17T09:06:12.764Z,6.37
2022-10-17T09:09:41.240Z,3.80
2022-10-17T09:12:19.411Z,5.97
2022-10-17T09:15:15.343Z,7.27
2022-10-17T09:17:52.718Z,8.70
2022-10-17T09:20:24.831Z,6.77
2022-10-17T09:22:58.008Z,4.80
2022-10-17T09:25:28.918Z,9.23
2022-10-17T09:28:07.609Z,5.73
2022-10-17T09:30:45.472Z,3.57
2022-10-17T09:33:28.295Z,4.17
2022-10-17T09:36:14.668Z,6.27
2022-10-17T09:38:49.317Z,4.60
2022-10-17T09:41:59.918Z,8.43
2022-10-17T09:44:32.794Z,4.13
2022-10-17T09:47:37.380Z,4.13
2022-10-17T09:56:27.689Z,3.70
2022-10-17T10:05:27.215Z,4.47
2022-10-17T10:08:05.003Z,6.57
2022-10-17T10:10:39.250Z,8.20
2022-10-17T10:13:25.684Z,5.40
2022-10-17T10:16:19.866Z,4.17
2022-10-17T10:18:55.422Z,3.13
2022-10-17T10:21:45.090Z,12.10
2022-10-17T10:24:30.887Z,6.67
2022-10-17T10:30:09.165Z,5.83
2022-10-17T10:32:43.904Z,6.17
2022-10-17T10:35:32.265Z,3.50
2022-10-17T10:38:02.326Z,3.47
2022-10-17T10:40:38.372Z,8.37
2022-10-17T10:43:08.873Z,3.40
2022-10-17T10:45:48.996Z,3.30
2022-10-17T10:48:25.092Z,5.57
2022-10-17T10:51:00.675Z,3.67
2022-10-17T10:53:58.543Z,4.03
2022-10-17T10:56:55.386Z,3.43
2022-10-17T11:06:18.116Z,3.90
2022-10-17T11:08:52.866Z,7.00
2022-10-17T11:12:02.634Z,3.27
2022-10-17T11:17:47.596Z,6.23
2022-10-17T11:20:27.411Z,2.20
2022-10-17T11:23:05.920Z,3.33
2022-10-17T11:25:40.406Z,6.40
2022-10-17T11:34:58.147Z,3.20
2022-10-17T11:37:31.512Z,11.37
2022-10-17T11:40:24.411Z,8.33
2022-10-17T11:43:24.679Z,2.87
2022-10-17T11:46:18.243Z,6.63
2022-10-17T11:49:05.550Z,4.97
2022-10-17T11:52:04.632Z,6.93
2022-10-17T11:54:45.442Z,4.57
2022-10-17T12:00:56.043Z,3.40
2022-10-17T12:03:42.941Z,5.57
2022-10-17T12:06:43.903Z,4.00
2022-10-17T12:09:59.941Z,7.83
2022-10-17T12:12:48.147Z,5.23
2022-10-17T12:15:46.783Z,5.37
2022-10-17T12:18:30.055Z,6.10
2022-10-17T12:21:11.545Z,6.53
2022-10-17T12:24:24.950Z,3.60
2022-10-17T12:29:38.731Z,3.17
2022-10-17T12:32:12.691Z,4.40
2022-10-17T12:34:58.764Z,6.20
2022-10-17T12:38:35.976Z,3.57
2022-10-17T12:42:04.039Z,5.83
2022-10-17T12:44:51.158Z,3.20
2022-10-17T12:47:48.906Z,3.73
2022-10-17T12:51:35.294Z,5.80
2022-10-17T12:54:20.104Z,6.00
2022-10-17T12:57:07.127Z,4.03
2022-10-17T12:59:58.633Z,4.67
2022-10-17T13:02:55.006Z,3.57
2022-10-17T13:05:46.981Z,5.27
2022-10-17T13:08:26.733Z,2.93
2022-10-17T13:10:58.970Z,4.27
2022-10-17T13:14:23.414Z,3.90
2022-10-17T13:17:43.078Z,5.03
2022-10-17T13:21:03.582Z,3.70
2022-10-17T13:24:04.973Z,8.63
2022-10-17T13:26:41.131Z,4.70
2022-10-17T13:29:13.951Z,5.33
2022-10-17T13:31:43.823Z,7.07
2022-10-17T13:34:18.629Z,4.00
2022-10-17T13:37:08.012Z,5.63
2022-10-17T13:46:37.271Z,9.43
2022-10-17T13:49:21.360Z,2.73
2022-10-17T13:52:20.673Z,4.60
2022-10-17T13:55:41.889Z,4.00
2022-10-17T13:58:31.620Z,4.07
2022-10-17T14:05:16.713Z,4.03
2022-10-17T14:11:30.297Z,7.47
2022-10-17T14:14:00.696Z,7.43
2022-10-17T14:16:36.468Z,3.63
2022-10-17T14:19:17.746Z,5.17
2022-10-17T14:21:52.670Z,5.70
2022-10-17T14:25:02.513Z,8.60
2022-10-17T14:27:58.124Z,4.60
2022-10-17T14:30:55.667Z,6.60
2022-10-17T14:33:50.604Z,5.80
2022-10-17T14:36:21.116Z,4.37
2022-10-17T14:39:03.514Z,4.30
2022-10-17T14:41:44.039Z,5.07
2022-10-17T14:44:28.957Z,4.90
2022-10-17T14:47:05.987Z,6.93
2022-10-17T14:49:42.287Z,5.20
2022-10-17T14:52:33.828Z,2.93
2022-10-17T14:55:22.164Z,4.97
2022-10-17T14:57:56.158Z,4.00
2022-10-17T15:03:41.334Z,4.90
2022-10-17T15:06:20.021Z,4.83
2022-10-17T15:08:48.352Z,5.77
2022-10-17T15:11:20.286Z,5.47
2022-10-17T15:13:48.515Z,8.10
2022-10-17T15:16:27.258Z,5.60
2022-10-17T15:18:58.912Z,6.00
2022-10-17T15:21:39.306Z,3.37
2022-10-17T15:24:21.686Z,5.17
2022-10-17T15:27:57.093Z,7.37
2022-10-17T15:30:30.893Z,6.15
2022-10-17T15:33:01.257Z,3.93
2022-10-17T15:35:30.818Z,5.53
2022-10-17T15:37:59.326Z,4.67
2022-10-17T15:40:33.409Z,5.73
2022-10-17T15:43:07.413Z,7.37
2022-10-17T15:52:13.559Z,4.57
2022-10-17T15:54:41.941Z,7.10
2022-10-17T15:57:17.378Z,5.37
2022-10-17T15:59:47.311Z,6.40
2022-10-17T16:02:19.118Z,10.37
2022-10-17T16:04:49.946Z,5.80
2022-10-17T16:08:05.457Z,6.50
2022-10-17T16:11:12.364Z,3.97
2022-10-17T16:14:04.450Z,9.93
2022-10-17T16:23:31.593Z,4.77
2022-10-17T16:26:05.999Z,9.00
2022-10-17T16:28:35.997Z,7.53
2022-10-17T16:31:18.847Z,5.93
2022-10-17T16:33:48.289Z,5.53
2022-10-17T16:36:16.559Z,16.53
2022-10-17T16:41:56.269Z,4.87
2022-10-17T16:44:26.804Z,9.10
2022-10-17T16:53:30.655Z,8.80
2022-10-17T16:56:07.067Z,5.10
2022-10-17T16:58:38.218Z,5.47
2022-10-17T17:01:09.609Z,7.40
2022-10-17T17:04:13.944Z,6.00
2022-10-17T17:19:29.005Z,7.23
2022-10-17T17:21:57.318Z,7.13
2022-10-17T17:24:27.838Z,6.60
2022-10-17T17:26:57.847Z,6.60
2022-10-17T17:29:29.074Z,11.50
2022-10-17T17:31:58.102Z,11.40
2022-10-17T17:34:26.542Z,8.00
2022-10-17T17:36:57.579Z,9.10
2022-10-17T17:39:49.439Z,14.20
2022-10-17T17:42:24.154Z,8.90
2022-10-17T17:44:56.652Z,7.40
2022-10-17T17:47:36.501Z,14.37
2022-10-17T17:50:05.195Z,11.27
2022-10-17T17:52:35.728Z,10.43
2022-10-17T17:55:04.265Z,7.93
2022-10-17T17:57:38.234Z,8.67
2022-10-17T18:00:17.367Z,7.87
2022-10-17T18:03:00.584Z,15.27
2022-10-17T18:05:31.723Z,10.10
2022-10-17T18:08:01.657Z,10.37
2022-10-17T18:10:41.160Z,9.60
2022-10-17T18:16:19.024Z,11.27
2022-10-17T18:18:47.468Z,11.60
2022-10-17T18:21:21.142Z,11.13
2022-10-17T18:23:52.964Z,8.87
2022-10-17T18:26:21.348Z,11.37
2022-10-17T18:28:52.215Z,10.67
2022-10-17T18:31:32.328Z,12.13
2022-10-17T18:34:27.982Z,10.30
2022-10-17T18:36:56.871Z,11.00
2022-10-17T18:39:32.814Z,9.70
2022-10-17T18:42:10.501Z,11.07
2022-10-17T18:44:59.998Z,10.23
2022-10-17T18:47:34.872Z,9.90
2022-10-17T18:50:03.176Z,15.20
2022-10-17T18:52:31.652Z,10.47
2022-10-17T18:55:00.203Z,12.60
2022-10-17T18:57:31.187Z,9.97
2022-10-17T19:00:00.613Z,13.23
2022-10-17T19:02:38.215Z,9.27
2022-10-17T19:05:14.863Z,12.10
2022-10-17T19:07:46.237Z,10.73
2022-10-17T19:10:33.899Z,12.67
2022-10-17T19:13:04.570Z,11.80
2022-10-17T19:15:36.167Z,11.03
2022-10-17T19:18:13.877Z,13.70
2022-10-17T19:20:43.840Z,14.43
2022-10-17T19:23:21.699Z,10.90
2022-10-17T19:26:03.713Z,8.50
2022-10-17T19:28:34.049Z,9.00
2022-10-17T19:31:17.716Z,13.17
2022-10-17T19:34:37.824Z,12.17
2022-10-17T19:40:46.582Z,13.47
2022-10-17T19:43:15.721Z,13.23
2022-10-17T19:45:44.328Z,11.57
2022-10-17T19:48:12.537Z,8.90
2022-10-17T19:50:45.982Z,10.07
2022-10-17T19:53:26.437Z,13.67
2022-10-17T19:55:56.529Z,12.97
2022-10-17T19:58:26.904Z,12.20
2022-10-17T20:00:57.267Z,9.10
2022-10-17T20:06:23.903Z,12.67
2022-10-17T20:08:53.963Z,9.00
2022-10-17T20:11:25.506Z,12.90
2022-10-17T20:13:55.415Z,9.07
2022-10-17T20:16:25.763Z,9.17
2022-10-17T20:18:57.192Z,10.53
2022-10-17T20:21:28.432Z,10.80
2022-10-17T20:24:01.108Z,13.43
2022-10-17T20:26:39.572Z,10.93
2022-10-17T20:29:11.565Z,11.57
2022-10-17T20:31:44.210Z,13.77
2022-10-17T20:34:15.146Z,19.40
2022-10-17T20:36:44.123Z,16.93
2022-10-17T20:39:15.858Z,15.43
2022-10-17T20:41:47.418Z,13.50
2022-10-17T20:44:15.905Z,13.60
2022-10-17T20:47:00.674Z,16.47
2022-10-17T20:49:34.378Z,12.17
2022-10-17T20:52:03.185Z,10.23
2022-10-17T20:54:31.829Z,17.40
2022-10-17T20:57:05.380Z,13.60
2022-10-17T20:59:35.245Z,13.90
2022-10-17T21:02:04.102Z,12.57
2022-10-17T21:04:51.743Z,11.20
2022-10-17T21:07:22.398Z,11.63
2022-10-17T21:09:55.000Z,10.63
2022-10-17T21:12:36.661Z,11.33
2022-10-17T21:15:27.341Z,14.27
2022-10-17T21:17:58.120Z,10.83
2022-10-17T21:20:28.021Z,9.90
2022-10-17T21:22:57.411Z,10.87
2022-10-17T21:25:27.478Z,10.87
2022-10-17T21:28:00.326Z,10.73
2022-10-17T21:30:28.754Z,11.43
2022-10-17T21:33:01.141Z,10.30
2022-10-17T21:35:30.847Z,8.57
2022-10-17T21:38:02.325Z,9.60
2022-10-17T21:40:31.625Z,10.13
2022-10-17T21:43:03.937Z,12.67
2022-10-17T21:45:40.997Z,12.13
2022-10-17T21:48:13.192Z,14.07
2022-10-17T21:50:46.036Z,10.53
2022-10-17T21:53:18.799Z,9.17
2022-10-17T21:55:50.294Z,10.57
2022-10-17T22:02:04.298Z,8.80
2022-10-17T22:04:36.077Z,9.53
2022-10-17T22:07:05.556Z,15.23
2022-10-17T22:09:38.003Z,12.70
2022-10-17T22:12:06.615Z,10.83
2022-10-17T22:14:38.083Z,12.13
2022-10-17T22:17:08.840Z,10.00
2022-10-17T22:19:38.619Z,15.27
2022-10-17T22:22:06.801Z,8.77
2022-10-17T22:24:35.239Z,13.43
2022-10-17T22:27:04.945Z,16.43
2022-10-17T22:29:39.721Z,12.53
2022-10-17T22:32:09.548Z,11.87
2022-10-17T22:34:37.842Z,11.33
2022-10-17T22:37:07.249Z,11.10
2022-10-17T22:39:35.563Z,7.97
2022-10-17T22:42:06.335Z,8.53
2022-10-17T22:44:34.635Z,12.33
2022-10-17T22:47:03.095Z,11.77
2022-10-17T22:49:36.097Z,9.53
2022-10-17T22:52:04.627Z,13.67
2022-10-17T22:54:32.896Z,13.73
2022-10-17T22:57:01.193Z,12.03
2022-10-17T22:59:31.315Z,13.83
2022-10-17T23:02:00.124Z,8.07
2022-10-17T23:04:31.125Z,6.77
2022-10-17T23:07:02.243Z,11.40
2022-10-17T23:09:30.702Z,9.23
2022-10-17T23:12:00.251Z,10.73
2022-10-17T23:14:28.497Z,10.50
2022-10-17T23:16:59.615Z,8.90
2022-10-17T23:19:27.924Z,9.23
2022-10-17T23:21:56.404Z,10.10
2022-10-17T23:24:33.000Z,9.70
2022-10-17T23:27:01.331Z,10.90
2022-10-17T23:29:36.558Z,8.47
2022-10-17T23:32:06.639Z,10.67
2022-10-17T23:34:37.307Z,8.73
2022-10-17T23:37:05.889Z,7.60
2022-10-17T23:39:41.346Z,11.07
2022-10-17T23:42:13.236Z,10.20
2022-10-17T23:44:41.611Z,10.80
2022-10-17T23:47:10.562Z,10.23
2022-10-17T23:49:40.164Z,14.33
2022-10-17T23:52:08.423Z,11.50
2022-10-17T23:57:12.843Z,8.93
2022-10-17T23:59:46.436Z,9.37
